sensor_id;sensor_type;location;lat;lon;timestamp;temperature;humidity
3942;DHT22;1985;48.592;8.850;2022-09-03T00:02:43;20.30;92.70
3942;DHT22;1985;48.592;8.850;2022-09-03T00:05:23;20.30;92.90
3942;DHT22;1985;48.592;8.850;2022-09-03T00:08:09;20.30;93.10
3942;DHT22;1985;48.592;8.850;2022-09-03T00:10:44;20.20;92.60
3942;DHT22;1985;48.592;8.850;2022-09-03T00:13:24;20.10;93.30
3942;DHT22;1985;48.592;8.850;2022-09-03T00:15:54;20.10;93.40
3942;DHT22;1985;48.592;8.850;2022-09-03T00:18:24;20.20;93.50
3942;DHT22;1985;48.592;8.850;2022-09-03T00:21:09;20.20;93.60
3942;DHT22;1985;48.592;8.850;2022-09-03T00:23:40;20.20;93.50
3942;DHT22;1985;48.592;8.850;2022-09-03T00:31:33;20.20;93.60
3942;DHT22;1985;48.592;8.850;2022-09-03T00:34:06;20.10;93.50
3942;DHT22;1985;48.592;8.850;2022-09-03T00:36:40;20.10;93.60
3942;DHT22;1985;48.592;8.850;2022-09-03T00:39:16;20.00;93.40
3942;DHT22;1985;48.592;8.850;2022-09-03T00:41:57;19.90;94.10
3942;DHT22;1985;48.592;8.850;2022-09-03T00:44:55;20.00;94.30
3942;DHT22;1985;48.592;8.850;2022-09-03T00:50:16;19.80;94.50
3942;DHT22;1985;48.592;8.850;2022-09-03T01:00:39;19.70;94.70
3942;DHT22;1985;48.592;8.850;2022-09-03T01:03:14;19.70;95.10
3942;DHT22;1985;48.592;8.850;2022-09-03T01:13:56;19.70;94.60
3942;DHT22;1985;48.592;8.850;2022-09-03T01:16:37;19.70;93.50
3942;DHT22;1985;48.592;8.850;2022-09-03T01:30:41;19.70;94.30
3942;DHT22;1985;48.592;8.850;2022-09-03T01:36:10;19.50;93.80
3942;DHT22;1985;48.592;8.850;2022-09-03T01:41:23;19.50;94.30
3942;DHT22;1985;48.592;8.850;2022-09-03T01:49:46;19.20;94.70
3942;DHT22;1985;48.592;8.850;2022-09-03T01:52:21;19.10;95.00
3942;DHT22;1985;48.592;8.850;2022-09-03T01:55:11;19.20;94.70
3942;DHT22;1985;48.592;8.850;2022-09-03T01:57:53;19.20;94.80
3942;DHT22;1985;48.592;8.850;2022-09-03T02:00:21;19.10;95.50
3942;DHT22;1985;48.592;8.850;2022-09-03T02:02:49;19.10;95.60
3942;DHT22;1985;48.592;8.850;2022-09-03T02:05:26;19.20;95.60
3942;DHT22;1985;48.592;8.850;2022-09-03T02:08:06;19.20;96.00
3942;DHT22;1985;48.592;8.850;2022-09-03T02:10:51;19.10;96.10
3942;DHT22;1985;48.592;8.850;2022-09-03T02:13:23;19.00;96.10
3942;DHT22;1985;48.592;8.850;2022-09-03T02:15:51;19.10;96.30
3942;DHT22;1985;48.592;8.850;2022-09-03T02:18:27;19.20;96.10
3942;DHT22;1985;48.592;8.850;2022-09-03T02:20:54;19.20;96.40
3942;DHT22;1985;48.592;8.850;2022-09-03T02:23:21;19.10;96.40
3942;DHT22;1985;48.592;8.850;2022-09-03T02:25:51;19.20;96.80
3942;DHT22;1985;48.592;8.850;2022-09-03T02:28:19;19.10;96.50
3942;DHT22;1985;48.592;8.850;2022-09-03T02:30:46;19.00;96.60
3942;DHT22;1985;48.592;8.850;2022-09-03T02:33:13;18.90;96.70
3942;DHT22;1985;48.592;8.850;2022-09-03T02:35:40;19.00;97.20
3942;DHT22;1985;48.592;8.850;2022-09-03T02:38:23;18.80;97.30
3942;DHT22;1985;48.592;8.850;2022-09-03T02:40:50;18.70;97.60
3942;DHT22;1985;48.592;8.850;2022-09-03T02:43:38;18.50;98.20
3942;DHT22;1985;48.592;8.850;2022-09-03T02:46:09;18.40;99.00
3942;DHT22;1985;48.592;8.850;2022-09-03T02:48:36;18.30;99.70
3942;DHT22;1985;48.592;8.850;2022-09-03T02:51:02;18.20;99.90
3942;DHT22;1985;48.592;8.850;2022-09-03T02:53:28;18.20;99.90
3942;DHT22;1985;48.592;8.850;2022-09-03T02:56:00;18.30;99.90
3942;DHT22;1985;48.592;8.850;2022-09-03T02:58:27;18.20;99.90
3942;DHT22;1985;48.592;8.850;2022-09-03T03:00:52;18.10;99.90
3942;DHT22;1985;48.592;8.850;2022-09-03T03:03:18;18.10;99.90
3942;DHT22;1985;48.592;8.850;2022-09-03T03:05:48;18.10;99.90
3942;DHT22;1985;48.592;8.850;2022-09-03T03:08:16;18.30;99.90
3942;DHT22;1985;48.592;8.850;2022-09-03T03:10:48;18.40;99.90
3942;DHT22;1985;48.592;8.850;2022-09-03T03:13:15;18.30;99.90
3942;DHT22;1985;48.592;8.850;2022-09-03T03:15:41;18.20;99.90
3942;DHT22;1985;48.592;8.850;2022-09-03T03:18:08;18.30;99.90
3942;DHT22;1985;48.592;8.850;2022-09-03T03:20:37;18.40;99.90
3942;DHT22;1985;48.592;8.850;2022-09-03T03:23:03;18.30;99.90
3942;DHT22;1985;48.592;8.850;2022-09-03T03:25:32;18.30;99.90
3942;DHT22;1985;48.592;8.850;2022-09-03T03:27:57;18.20;99.90
3942;DHT22;1985;48.592;8.850;2022-09-03T03:30:23;18.30;99.90
3942;DHT22;1985;48.592;8.850;2022-09-03T03:32:49;18.30;99.90
3942;DHT22;1985;48.592;8.850;2022-09-03T03:35:14;18.30;99.90
3942;DHT22;1985;48.592;8.850;2022-09-03T03:37:40;18.40;99.90
3942;DHT22;1985;48.592;8.850;2022-09-03T03:40:06;18.30;99.90
3942;DHT22;1985;48.592;8.850;2022-09-03T03:42:33;18.30;99.90
3942;DHT22;1985;48.592;8.850;2022-09-03T03:44:59;18.10;99.90
3942;DHT22;1985;48.592;8.850;2022-09-03T03:47:29;17.90;99.90
3942;DHT22;1985;48.592;8.850;2022-09-03T03:49:56;17.80;99.90
3942;DHT22;1985;48.592;8.850;2022-09-03T03:52:23;17.70;99.90
3942;DHT22;1985;48.592;8.850;2022-09-03T03:54:49;17.80;99.90
3942;DHT22;1985;48.592;8.850;2022-09-03T03:57:15;17.80;99.90
3942;DHT22;1985;48.592;8.850;2022-09-03T03:59:41;17.70;99.90
3942;DHT22;1985;48.592;8.850;2022-09-03T04:02:07;17.70;99.90
3942;DHT22;1985;48.592;8.850;2022-09-03T04:04:32;17.60;99.90
3942;DHT22;1985;48.592;8.850;2022-09-03T04:06:58;17.60;99.90
3942;DHT22;1985;48.592;8.850;2022-09-03T04:09:24;17.50;99.90
3942;DHT22;1985;48.592;8.850;2022-09-03T04:11:50;17.60;99.90
3942;DHT22;1985;48.592;8.850;2022-09-03T04:14:15;17.50;99.90
3942;DHT22;1985;48.592;8.850;2022-09-03T04:16:42;17.50;99.90
3942;DHT22;1985;48.592;8.850;2022-09-03T04:19:11;17.50;99.90
3942;DHT22;1985;48.592;8.850;2022-09-03T04:21:37;17.50;99.90
3942;DHT22;1985;48.592;8.850;2022-09-03T04:24:04;17.50;99.90
3942;DHT22;1985;48.592;8.850;2022-09-03T04:26:31;17.60;99.90
3942;DHT22;1985;48.592;8.850;2022-09-03T04:28:58;17.60;99.90
3942;DHT22;1985;48.592;8.850;2022-09-03T04:31:25;17.60;99.90
3942;DHT22;1985;48.592;8.850;2022-09-03T04:33:51;17.70;99.90
3942;DHT22;1985;48.592;8.850;2022-09-03T04:36:20;17.70;99.90
3942;DHT22;1985;48.592;8.850;2022-09-03T04:38:48;17.90;99.90
3942;DHT22;1985;48.592;8.850;2022-09-03T04:41:17;18.00;99.90
3942;DHT22;1985;48.592;8.850;2022-09-03T04:43:43;18.10;99.90
3942;DHT22;1985;48.592;8.850;2022-09-03T04:46:10;18.10;99.90
3942;DHT22;1985;48.592;8.850;2022-09-03T04:48:37;18.10;99.90
3942;DHT22;1985;48.592;8.850;2022-09-03T04:51:14;17.90;99.90
3942;DHT22;1985;48.592;8.850;2022-09-03T04:53:44;17.80;99.90
3942;DHT22;1985;48.592;8.850;2022-09-03T04:56:19;17.60;99.90
3942;DHT22;1985;48.592;8.850;2022-09-03T04:58:45;17.60;99.90
3942;DHT22;1985;48.592;8.850;2022-09-03T05:01:16;17.50;99.90
3942;DHT22;1985;48.592;8.850;2022-09-03T05:03:43;17.50;99.90
3942;DHT22;1985;48.592;8.850;2022-09-03T05:06:09;17.50;99.90
3942;DHT22;1985;48.592;8.850;2022-09-03T05:08:35;17.50;99.90
3942;DHT22;1985;48.592;8.850;2022-09-03T05:11:06;17.40;99.90
3942;DHT22;1985;48.592;8.850;2022-09-03T05:13:33;17.30;99.90
3942;DHT22;1985;48.592;8.850;2022-09-03T05:16:04;17.30;99.90
3942;DHT22;1985;48.592;8.850;2022-09-03T05:18:31;17.40;99.90
3942;DHT22;1985;48.592;8.850;2022-09-03T05:21:02;17.50;99.90
3942;DHT22;1985;48.592;8.850;2022-09-03T05:23:29;17.60;99.90
3942;DHT22;1985;48.592;8.850;2022-09-03T05:25:59;17.80;99.90
3942;DHT22;1985;48.592;8.850;2022-09-03T05:28:27;17.80;99.90
3942;DHT22;1985;48.592;8.850;2022-09-03T05:31:00;17.90;99.90
3942;DHT22;1985;48.592;8.850;2022-09-03T05:33:26;18.00;99.90
3942;DHT22;1985;48.592;8.850;2022-09-03T05:35:54;17.90;99.90
3942;DHT22;1985;48.592;8.850;2022-09-03T05:38:19;17.80;99.90
3942;DHT22;1985;48.592;8.850;2022-09-03T05:40:45;17.80;99.90
3942;DHT22;1985;48.592;8.850;2022-09-03T05:43:11;17.90;99.90
3942;DHT22;1985;48.592;8.850;2022-09-03T05:45:36;17.90;99.90
3942;DHT22;1985;48.592;8.850;2022-09-03T05:48:02;17.80;99.90
3942;DHT22;1985;48.592;8.850;2022-09-03T05:50:27;17.80;99.90
3942;DHT22;1985;48.592;8.850;2022-09-03T05:52:53;17.80;99.90
3942;DHT22;1985;48.592;8.850;2022-09-03T05:55:19;17.80;99.90
3942;DHT22;1985;48.592;8.850;2022-09-03T05:57:44;17.80;99.90
3942;DHT22;1985;48.592;8.850;2022-09-03T06:00:15;17.90;99.90
3942;DHT22;1985;48.592;8.850;2022-09-03T06:02:43;18.00;99.90
3942;DHT22;1985;48.592;8.850;2022-09-03T06:05:14;18.00;99.90
3942;DHT22;1985;48.592;8.850;2022-09-03T06:07:41;18.00;99.90
3942;DHT22;1985;48.592;8.850;2022-09-03T06:10:07;18.00;99.90
3942;DHT22;1985;48.592;8.850;2022-09-03T06:12:32;18.00;99.90
3942;DHT22;1985;48.592;8.850;2022-09-03T06:14:58;18.00;99.90
3942;DHT22;1985;48.592;8.850;2022-09-03T06:17:23;18.10;99.90
3942;DHT22;1985;48.592;8.850;2022-09-03T06:19:49;18.20;99.90
3942;DHT22;1985;48.592;8.850;2022-09-03T06:22:15;18.20;99.90
3942;DHT22;1985;48.592;8.850;2022-09-03T06:24:41;18.30;99.90
3942;DHT22;1985;48.592;8.850;2022-09-03T06:27:06;18.20;99.90
3942;DHT22;1985;48.592;8.850;2022-09-03T06:29:32;18.30;99.90
3942;DHT22;1985;48.592;8.850;2022-09-03T06:31:59;18.40;99.90
3942;DHT22;1985;48.592;8.850;2022-09-03T06:34:28;18.40;99.90
3942;DHT22;1985;48.592;8.850;2022-09-03T06:36:53;18.50;99.90
3942;DHT22;1985;48.592;8.850;2022-09-03T06:39:19;18.50;99.90
3942;DHT22;1985;48.592;8.850;2022-09-03T06:41:45;18.50;99.90
3942;DHT22;1985;48.592;8.850;2022-09-03T06:44:12;18.60;99.90
3942;DHT22;1985;48.592;8.850;2022-09-03T06:46:39;18.70;99.90
3942;DHT22;1985;48.592;8.850;2022-09-03T06:49:09;18.80;99.90
3942;DHT22;1985;48.592;8.850;2022-09-03T06:51:35;18.90;99.90
3942;DHT22;1985;48.592;8.850;2022-09-03T06:54:06;19.10;99.90
3942;DHT22;1985;48.592;8.850;2022-09-03T06:56:34;19.20;99.90
3942;DHT22;1985;48.592;8.850;2022-09-03T06:59:04;19.20;99.90
3942;DHT22;1985;48.592;8.850;2022-09-03T07:01:31;19.20;99.90
3942;DHT22;1985;48.592;8.850;2022-09-03T07:03:59;19.10;99.90
3942;DHT22;1985;48.592;8.850;2022-09-03T07:06:30;19.20;99.90
3942;DHT22;1985;48.592;8.850;2022-09-03T07:08:57;19.30;99.90
3942;DHT22;1985;48.592;8.850;2022-09-03T07:11:26;19.40;99.90
3942;DHT22;1985;48.592;8.850;2022-09-03T07:13:54;19.50;99.90
3942;DHT22;1985;48.592;8.850;2022-09-03T07:16:25;19.40;99.90
3942;DHT22;1985;48.592;8.850;2022-09-03T07:18:52;19.30;99.90
3942;DHT22;1985;48.592;8.850;2022-09-03T07:21:21;19.40;99.90
3942;DHT22;1985;48.592;8.850;2022-09-03T07:23:48;19.30;99.90
3942;DHT22;1985;48.592;8.850;2022-09-03T07:26:18;19.50;99.90
3942;DHT22;1985;48.592;8.850;2022-09-03T07:28:44;19.50;99.90
3942;DHT22;1985;48.592;8.850;2022-09-03T07:33:54;19.60;99.90
3942;DHT22;1985;48.592;8.850;2022-09-03T07:36:21;19.80;99.90
3942;DHT22;1985;48.592;8.850;2022-09-03T07:38:47;19.80;99.90
3942;DHT22;1985;48.592;8.850;2022-09-03T07:41:14;19.90;99.90
3942;DHT22;1985;48.592;8.850;2022-09-03T07:43:44;20.00;99.90
3942;DHT22;1985;48.592;8.850;2022-09-03T07:46:15;20.10;99.90
3942;DHT22;1985;48.592;8.850;2022-09-03T07:48:46;20.10;99.90
3942;DHT22;1985;48.592;8.850;2022-09-03T07:51:13;20.10;99.90
3942;DHT22;1985;48.592;8.850;2022-09-03T07:53:39;20.20;99.90
3942;DHT22;1985;48.592;8.850;2022-09-03T07:56:06;20.30;99.90
3942;DHT22;1985;48.592;8.850;2022-09-03T07:58:33;20.20;99.90
3942;DHT22;1985;48.592;8.850;2022-09-03T08:01:06;20.20;99.90
3942;DHT22;1985;48.592;8.850;2022-09-03T08:03:44;20.20;99.90
3942;DHT22;1985;48.592;8.850;2022-09-03T08:06:11;20.30;99.90
3942;DHT22;1985;48.592;8.850;2022-09-03T08:08:37;20.40;99.90
3942;DHT22;1985;48.592;8.850;2022-09-03T08:11:08;20.50;99.90
3942;DHT22;1985;48.592;8.850;2022-09-03T08:13:45;20.80;99.90
3942;DHT22;1985;48.592;8.850;2022-09-03T08:16:13;21.00;99.90
3942;DHT22;1985;48.592;8.850;2022-09-03T08:18:39;21.20;99.90
3942;DHT22;1985;48.592;8.850;2022-09-03T08:21:10;21.10;99.90
3942;DHT22;1985;48.592;8.850;2022-09-03T08:23:43;21.10;99.90
3942;DHT22;1985;48.592;8.850;2022-09-03T08:26:09;21.20;99.90
3942;DHT22;1985;48.592;8.850;2022-09-03T08:28:36;21.30;99.90
3942;DHT22;1985;48.592;8.850;2022-09-03T08:31:06;21.40;99.90
3942;DHT22;1985;48.592;8.850;2022-09-03T08:33:32;21.30;99.90
3942;DHT22;1985;48.592;8.850;2022-09-03T08:38:33;21.10;99.90
3942;DHT22;1985;48.592;8.850;2022-09-03T08:46:08;21.00;99.90
3942;DHT22;1985;48.592;8.850;2022-09-03T08:48:34;21.30;99.90
3942;DHT22;1985;48.592;8.850;2022-09-03T08:51:01;21.50;99.90
3942;DHT22;1985;48.592;8.850;2022-09-03T08:56:08;21.40;99.90
3942;DHT22;1985;48.592;8.850;2022-09-03T08:58:35;21.40;99.90
3942;DHT22;1985;48.592;8.850;2022-09-03T09:21:19;22.60;99.90
3942;DHT22;1985;48.592;8.850;2022-09-03T09:23:48;22.70;99.90
3942;DHT22;1985;48.592;8.850;2022-09-03T09:26:16;22.70;99.90
3942;DHT22;1985;48.592;8.850;2022-09-03T09:28:45;22.80;99.90
3942;DHT22;1985;48.592;8.850;2022-09-03T09:31:14;22.60;99.90
3942;DHT22;1985;48.592;8.850;2022-09-03T09:33:43;22.40;99.90
3942;DHT22;1985;48.592;8.850;2022-09-03T09:36:14;22.40;99.90
3942;DHT22;1985;48.592;8.850;2022-09-03T09:38:42;22.50;99.90
3942;DHT22;1985;48.592;8.850;2022-09-03T09:41:18;22.30;99.90
3942;DHT22;1985;48.592;8.850;2022-09-03T09:43:46;22.30;99.90
3942;DHT22;1985;48.592;8.850;2022-09-03T09:46:23;22.40;99.90
3942;DHT22;1985;48.592;8.850;2022-09-03T09:48:55;22.40;99.90
3942;DHT22;1985;48.592;8.850;2022-09-03T09:51:27;22.30;99.90
3942;DHT22;1985;48.592;8.850;2022-09-03T09:54:16;22.40;99.90
3942;DHT22;1985;48.592;8.850;2022-09-03T09:56:56;22.50;99.90
3942;DHT22;1985;48.592;8.850;2022-09-03T09:59:22;22.70;99.90
3942;DHT22;1985;48.592;8.850;2022-09-03T10:01:48;22.70;99.30
3942;DHT22;1985;48.592;8.850;2022-09-03T10:04:23;22.40;99.60
3942;DHT22;1985;48.592;8.850;2022-09-03T10:07:42;22.70;99.90
3942;DHT22;1985;48.592;8.850;2022-09-03T10:09:44;23.20;99.90
3942;DHT22;1985;48.592;8.850;2022-09-03T10:12:27;23.70;99.70
3942;DHT22;1985;48.592;8.850;2022-09-03T10:15:01;24.10;97.90
3942;DHT22;1985;48.592;8.850;2022-09-03T10:20:18;24.70;96.90
3942;DHT22;1985;48.592;8.850;2022-09-03T10:25:24;24.50;94.90
3942;DHT22;1985;48.592;8.850;2022-09-03T10:27:51;24.10;95.60
3942;DHT22;1985;48.592;8.850;2022-09-03T10:30:19;24.00;96.40
3942;DHT22;1985;48.592;8.850;2022-09-03T10:33:09;24.20;95.90
3942;DHT22;1985;48.592;8.850;2022-09-03T10:35:43;24.00;95.40
3942;DHT22;1985;48.592;8.850;2022-09-03T10:38:27;23.80;95.10
3942;DHT22;1985;48.592;8.850;2022-09-03T10:50:01;23.40;95.70
3942;DHT22;1985;48.592;8.850;2022-09-03T10:52:58;23.20;95.90
3942;DHT22;1985;48.592;8.850;2022-09-03T11:05:39;21.60;99.90
3942;DHT22;1985;48.592;8.850;2022-09-03T11:07:39;21.10;99.90
3942;DHT22;1985;48.592;8.850;2022-09-03T11:12:49;19.90;99.90
3942;DHT22;1985;48.592;8.850;2022-09-03T11:15:41;19.10;99.90
3942;DHT22;1985;48.592;8.850;2022-09-03T11:18:24;18.80;99.90
3942;DHT22;1985;48.592;8.850;2022-09-03T11:20:53;18.90;99.90
3942;DHT22;1985;48.592;8.850;2022-09-03T11:23:21;18.70;99.90
3942;DHT22;1985;48.592;8.850;2022-09-03T11:25:55;18.70;99.90
3942;DHT22;1985;48.592;8.850;2022-09-03T11:28:33;18.80;99.90
3942;DHT22;1985;48.592;8.850;2022-09-03T11:33:53;19.00;99.90
3942;DHT22;1985;48.592;8.850;2022-09-03T11:36:31;18.80;99.90
3942;DHT22;1985;48.592;8.850;2022-09-03T11:38:57;18.50;99.90
3942;DHT22;1985;48.592;8.850;2022-09-03T11:41:30;18.10;99.90
3942;DHT22;1985;48.592;8.850;2022-09-03T11:44:15;17.50;99.90
3942;DHT22;1985;48.592;8.850;2022-09-03T11:46:55;17.10;99.90
3942;DHT22;1985;48.592;8.850;2022-09-03T11:49:28;16.90;99.90
3942;DHT22;1985;48.592;8.850;2022-09-03T11:52:00;16.70;99.90
3942;DHT22;1985;48.592;8.850;2022-09-03T11:54:26;16.50;99.90
3942;DHT22;1985;48.592;8.850;2022-09-03T11:57:14;16.20;99.90
3942;DHT22;1985;48.592;8.850;2022-09-03T11:59:42;16.00;99.90
3942;DHT22;1985;48.592;8.850;2022-09-03T12:02:28;16.00;99.90
3942;DHT22;1985;48.592;8.850;2022-09-03T12:07:42;15.80;99.90
3942;DHT22;1985;48.592;8.850;2022-09-03T12:10:33;16.00;99.90
3942;DHT22;1985;48.592;8.850;2022-09-03T12:16:30;15.90;99.90
3942;DHT22;1985;48.592;8.850;2022-09-03T12:18:55;16.10;99.90
3942;DHT22;1985;48.592;8.850;2022-09-03T12:21:24;16.10;99.90
3942;DHT22;1985;48.592;8.850;2022-09-03T12:23:51;16.20;99.90
3942;DHT22;1985;48.592;8.850;2022-09-03T12:26:20;16.20;99.90
3942;DHT22;1985;48.592;8.850;2022-09-03T12:28:53;16.30;99.90
3942;DHT22;1985;48.592;8.850;2022-09-03T12:31:30;16.50;99.90
3942;DHT22;1985;48.592;8.850;2022-09-03T12:36:34;16.70;99.90
3942;DHT22;1985;48.592;8.850;2022-09-03T12:39:14;16.80;99.90
3942;DHT22;1985;48.592;8.850;2022-09-03T12:49:35;16.70;99.90
3942;DHT22;1985;48.592;8.850;2022-09-03T12:52:06;16.70;99.90
3942;DHT22;1985;48.592;8.850;2022-09-03T12:54:42;16.80;99.90
3942;DHT22;1985;48.592;8.850;2022-09-03T12:57:08;17.10;99.90
3942;DHT22;1985;48.592;8.850;2022-09-03T12:59:35;17.50;99.90
3942;DHT22;1985;48.592;8.850;2022-09-03T13:02:11;17.60;99.90
3942;DHT22;1985;48.592;8.850;2022-09-03T13:04:38;17.50;99.90
3942;DHT22;1985;48.592;8.850;2022-09-03T13:07:18;17.40;99.90
3942;DHT22;1985;48.592;8.850;2022-09-03T13:09:46;17.20;99.90
3942;DHT22;1985;48.592;8.850;2022-09-03T13:12:28;17.50;99.90
3942;DHT22;1985;48.592;8.850;2022-09-03T13:14:55;17.70;99.90
3942;DHT22;1985;48.592;8.850;2022-09-03T13:23:21;18.00;99.90
3942;DHT22;1985;48.592;8.850;2022-09-03T13:33:46;18.10;99.90
3942;DHT22;1985;48.592;8.850;2022-09-03T13:36:18;18.40;99.90
3942;DHT22;1985;48.592;8.850;2022-09-03T13:41:42;18.70;99.90
3942;DHT22;1985;48.592;8.850;2022-09-03T13:44:29;19.00;99.90
3942;DHT22;1985;48.592;8.850;2022-09-03T13:47:01;19.20;99.90
3942;DHT22;1985;48.592;8.850;2022-09-03T13:55:44;20.10;99.90
3942;DHT22;1985;48.592;8.850;2022-09-03T14:06:36;20.80;99.90
3942;DHT22;1985;48.592;8.850;2022-09-03T14:09:32;21.00;99.90
3942;DHT22;1985;48.592;8.850;2022-09-03T14:12:24;21.00;99.90
3942;DHT22;1985;48.592;8.850;2022-09-03T14:21:10;21.10;99.90
3942;DHT22;1985;48.592;8.850;2022-09-03T14:26:04;21.00;99.90
3942;DHT22;1985;48.592;8.850;2022-09-03T14:28:39;21.00;99.90
3942;DHT22;1985;48.592;8.850;2022-09-03T14:34:20;20.90;99.90
3942;DHT22;1985;48.592;8.850;2022-09-03T14:45:47;20.80;99.90
3942;DHT22;1985;48.592;8.850;2022-09-03T15:01:12;22.10;99.90
3942;DHT22;1985;48.592;8.850;2022-09-03T15:09:37;22.30;99.90
3942;DHT22;1985;48.592;8.850;2022-09-03T15:14:56;22.40;99.90
3942;DHT22;1985;48.592;8.850;2022-09-03T15:20:52;22.30;99.90
3942;DHT22;1985;48.592;8.850;2022-09-03T15:23:49;22.10;99.90
3942;DHT22;1985;48.592;8.850;2022-09-03T15:37:20;21.30;99.90
3942;DHT22;1985;48.592;8.850;2022-09-03T15:40:10;21.40;99.90
3942;DHT22;1985;48.592;8.850;2022-09-03T15:42:41;21.50;99.90
3942;DHT22;1985;48.592;8.850;2022-09-03T15:50:54;21.50;99.90
3942;DHT22;1985;48.592;8.850;2022-09-03T15:53:31;21.70;99.90
3942;DHT22;1985;48.592;8.850;2022-09-03T15:56:24;21.90;99.90
3942;DHT22;1985;48.592;8.850;2022-09-03T16:01:44;22.10;99.90
3942;DHT22;1985;48.592;8.850;2022-09-03T16:06:57;22.10;99.90
3942;DHT22;1985;48.592;8.850;2022-09-03T16:12:44;22.00;99.90
3942;DHT22;1985;48.592;8.850;2022-09-03T16:15:29;22.00;99.90
3942;DHT22;1985;48.592;8.850;2022-09-03T16:21:40;21.90;99.90
3942;DHT22;1985;48.592;8.850;2022-09-03T16:29:13;21.90;99.90
3942;DHT22;1985;48.592;8.850;2022-09-03T16:32:02;22.00;99.90
3942;DHT22;1985;48.592;8.850;2022-09-03T16:40:14;22.10;99.90
3942;DHT22;1985;48.592;8.850;2022-09-03T16:54:41;22.20;99.90
3942;DHT22;1985;48.592;8.850;2022-09-03T17:00:04;22.30;99.90
3942;DHT22;1985;48.592;8.850;2022-09-03T17:05:59;22.20;99.90
3942;DHT22;1985;48.592;8.850;2022-09-03T17:22:42;21.70;99.90
3942;DHT22;1985;48.592;8.850;2022-09-03T17:25:39;21.70;99.90
3942;DHT22;1985;48.592;8.850;2022-09-03T17:30:56;21.40;99.90
3942;DHT22;1985;48.592;8.850;2022-09-03T17:36:09;21.50;99.90
3942;DHT22;1985;48.592;8.850;2022-09-03T17:49:20;21.20;99.90
3942;DHT22;1985;48.592;8.850;2022-09-03T17:57:24;20.70;99.90
3942;DHT22;1985;48.592;8.850;2022-09-03T18:08:13;20.20;99.90
3942;DHT22;1985;48.592;8.850;2022-09-03T18:16:18;20.20;99.90
3942;DHT22;1985;48.592;8.850;2022-09-03T18:18:49;20.20;99.90
3942;DHT22;1985;48.592;8.850;2022-09-03T18:21:24;20.20;99.90
3942;DHT22;1985;48.592;8.850;2022-09-03T18:24:28;20.20;99.90
3942;DHT22;1985;48.592;8.850;2022-09-03T18:30:19;20.10;99.90
3942;DHT22;1985;48.592;8.850;2022-09-03T18:33:03;20.00;99.90
3942;DHT22;1985;48.592;8.850;2022-09-03T18:35:47;20.00;99.90
3942;DHT22;1985;48.592;8.850;2022-09-03T18:38:35;20.00;99.90
3942;DHT22;1985;48.592;8.850;2022-09-03T18:48:01;20.00;99.90
3942;DHT22;1985;48.592;8.850;2022-09-03T18:50:53;20.00;99.90
3942;DHT22;1985;48.592;8.850;2022-09-03T18:56:50;19.90;99.90
3942;DHT22;1985;48.592;8.850;2022-09-03T19:02:28;19.90;99.90
3942;DHT22;1985;48.592;8.850;2022-09-03T19:05:30;19.90;99.90
3942;DHT22;1985;48.592;8.850;2022-09-03T19:08:25;19.80;99.90
3942;DHT22;1985;48.592;8.850;2022-09-03T19:11:29;19.70;99.90
3942;DHT22;1985;48.592;8.850;2022-09-03T19:20:28;19.70;99.90
3942;DHT22;1985;48.592;8.850;2022-09-03T19:23:13;19.70;99.90
3942;DHT22;1985;48.592;8.850;2022-09-03T19:26:05;19.70;99.90
3942;DHT22;1985;48.592;8.850;2022-09-03T19:28:56;19.80;99.90
3942;DHT22;1985;48.592;8.850;2022-09-03T19:32:10;19.80;99.90
3942;DHT22;1985;48.592;8.850;2022-09-03T19:43:49;19.90;99.90
3942;DHT22;1985;48.592;8.850;2022-09-03T19:55:38;19.60;99.90
3942;DHT22;1985;48.592;8.850;2022-09-03T19:58:28;19.50;99.90
3942;DHT22;1985;48.592;8.850;2022-09-03T20:01:13;19.50;99.90
3942;DHT22;1985;48.592;8.850;2022-09-03T20:04:09;19.40;99.90
3942;DHT22;1985;48.592;8.850;2022-09-03T20:06:55;19.40;99.90
3942;DHT22;1985;48.592;8.850;2022-09-03T20:09:42;19.40;99.90
3942;DHT22;1985;48.592;8.850;2022-09-03T20:12:31;19.40;99.90
3942;DHT22;1985;48.592;8.850;2022-09-03T20:14:57;19.30;99.90
3942;DHT22;1985;48.592;8.850;2022-09-03T20:23:02;19.20;99.90
3942;DHT22;1985;48.592;8.850;2022-09-03T20:25:35;19.20;99.90
3942;DHT22;1985;48.592;8.850;2022-09-03T20:31:00;19.30;99.90
3942;DHT22;1985;48.592;8.850;2022-09-03T20:38:52;19.40;99.90
3942;DHT22;1985;48.592;8.850;2022-09-03T20:42:22;19.40;99.90
3942;DHT22;1985;48.592;8.850;2022-09-03T20:44:42;19.40;99.90
3942;DHT22;1985;48.592;8.850;2022-09-03T20:47:19;19.50;99.90
3942;DHT22;1985;48.592;8.850;2022-09-03T20:55:41;19.40;99.90
3942;DHT22;1985;48.592;8.850;2022-09-03T21:00:47;19.30;99.90
3942;DHT22;1985;48.592;8.850;2022-09-03T21:03:44;19.30;99.90
3942;DHT22;1985;48.592;8.850;2022-09-03T21:08:55;19.20;99.90
3942;DHT22;1985;48.592;8.850;2022-09-03T21:21:35;19.10;99.90
3942;DHT22;1985;48.592;8.850;2022-09-03T21:24:19;18.90;99.90
3942;DHT22;1985;48.592;8.850;2022-09-03T21:26:54;18.90;99.90
3942;DHT22;1985;48.592;8.850;2022-09-03T21:29:25;18.90;99.90
3942;DHT22;1985;48.592;8.850;2022-09-03T21:31:58;19.00;99.90
3942;DHT22;1985;48.592;8.850;2022-09-03T21:34:40;19.00;99.90
3942;DHT22;1985;48.592;8.850;2022-09-03T21:37:12;19.00;99.90
3942;DHT22;1985;48.592;8.850;2022-09-03T21:39:53;18.90;99.90
3942;DHT22;1985;48.592;8.850;2022-09-03T21:42:40;18.90;99.90
3942;DHT22;1985;48.592;8.850;2022-09-03T21:48:19;18.70;99.90
3942;DHT22;1985;48.592;8.850;2022-09-03T21:50:59;18.80;99.90
3942;DHT22;1985;48.592;8.850;2022-09-03T22:04:25;18.80;99.90
3942;DHT22;1985;48.592;8.850;2022-09-03T22:12:57;18.80;99.90
3942;DHT22;1985;48.592;8.850;2022-09-03T22:15:28;18.70;99.90
3942;DHT22;1985;48.592;8.850;2022-09-03T22:18:02;18.60;99.90
3942;DHT22;1985;48.592;8.850;2022-09-03T22:20:30;18.50;99.90
3942;DHT22;1985;48.592;8.850;2022-09-03T22:23:11;18.30;99.90
3942;DHT22;1985;48.592;8.850;2022-09-03T22:26:01;18.40;99.90
3942;DHT22;1985;48.592;8.850;2022-09-03T22:28:45;18.40;99.90
3942;DHT22;1985;48.592;8.850;2022-09-03T22:36:49;18.00;99.90
3942;DHT22;1985;48.592;8.850;2022-09-03T22:39:42;18.10;99.90
3942;DHT22;1985;48.592;8.850;2022-09-03T22:50:24;18.10;99.90
3942;DHT22;1985;48.592;8.850;2022-09-03T22:56:03;18.10;99.90
3942;DHT22;1985;48.592;8.850;2022-09-03T23:06:28;18.10;99.90
3942;DHT22;1985;48.592;8.850;2022-09-03T23:09:08;18.10;99.90
3942;DHT22;1985;48.592;8.850;2022-09-03T23:11:44;18.00;99.90
3942;DHT22;1985;48.592;8.850;2022-09-03T23:14:16;18.10;99.90
3942;DHT22;1985;48.592;8.850;2022-09-03T23:16:53;18.10;99.90
3942;DHT22;1985;48.592;8.850;2022-09-03T23:19:33;18.10;99.90
3942;DHT22;1985;48.592;8.850;2022-09-03T23:22:34;18.00;99.90
3942;DHT22;1985;48.592;8.850;2022-09-03T23:30:07;17.80;99.90
3942;DHT22;1985;48.592;8.850;2022-09-03T23:32:32;17.90;99.90
3942;DHT22;1985;48.592;8.850;2022-09-03T23:34:59;18.00;99.90
3942;DHT22;1985;48.592;8.850;2022-09-03T23:51:25;17.60;99.90
3942;DHT22;1985;48.592;8.850;2022-09-03T23:54:22;17.60;99.90
